Time;durP1;ratioP1;P1;durP2;ratioP2;P2;SDS_P1;SDS_P2;PMS_P1;PMS_P2;Temp;Humidity;BMP_temperature;BMP_pressure;BME280_temperature;BME280_humidity;BME280_pressure;Samples;Min_cycle;Max_cycle;Signal;HPM_P1;HPM_P2
2023/06/07 00:00:23;;;;;;;4.70;4.30;;;;;;;;;;5039845;28;20465;-66
2023/06/07 00:02:50;;;;;;;5.43;4.55;;;;;;;;;;5034510;28;20437;-67
2023/06/07 00:05:21;;;;;;;5.03;4.53;;;;;;;;;;5037335;28;20422;-67
2023/06/07 00:07:48;;;;;;;4.60;4.20;;;;;;;;;;5047090;28;20449;-65
2023/06/07 00:10:16;;;;;;;5.68;4.22;;;;;;;;;;5046134;28;20424;-66
2023/06/07 00:12:43;;;;;;;4.78;4.38;;;;;;;;;;5036670;28;20911;-65
2023/06/07 00:15:10;;;;;;;4.30;4.00;;;;;;;;;;5040427;28;20882;-67
2023/06/07 00:17:40;;;;;;;5.05;4.05;;;;;;;;;;5041713;28;20434;-64
2023/06/07 00:20:08;;;;;;;4.22;3.72;;;;;;;;;;5030541;28;20532;-66
2023/06/07 00:22:38;;;;;;;4.60;4.20;;;;;;;;;;5042461;28;20793;-67
2023/06/07 00:25:06;;;;;;;6.00;4.50;;;;;;;;;;5046851;28;20828;-67
2023/06/07 00:27:33;;;;;;;4.80;4.40;;;;;;;;;;5046435;28;20424;-67
2023/06/07 00:30:00;;;;;;;5.72;4.60;;;;;;;;;;5048539;28;20436;-67
2023/06/07 00:32:27;;;;;;;4.38;3.97;;;;;;;;;;5047973;28;20429;-67
2023/06/07 00:34:54;;;;;;;4.70;4.30;;;;;;;;;;5047184;28;20926;-66
2023/06/07 00:37:21;;;;;;;4.70;4.30;;;;;;;;;;5050842;28;20426;-68
2023/06/07 00:39:50;;;;;;;5.15;4.60;;;;;;;;;;5037566;28;20901;-67
2023/06/07 00:42:17;;;;;;;5.10;4.70;;;;;;;;;;5044962;28;20910;-66
2023/06/07 00:44:44;;;;;;;4.80;4.40;;;;;;;;;;5050116;28;20417;-67
2023/06/07 00:47:11;;;;;;;5.50;5.00;;;;;;;;;;5042999;28;20408;-68
2023/06/07 00:49:38;;;;;;;5.05;4.55;;;;;;;;;;5043821;28;20429;-67
2023/06/07 00:52:06;;;;;;;5.38;4.30;;;;;;;;;;5047974;28;20443;-67
2023/06/07 00:54:33;;;;;;;4.77;4.37;;;;;;;;;;5047985;28;20445;-67
2023/06/07 00:57:01;;;;;;;4.80;4.30;;;;;;;;;;5049982;28;20804;-67
2023/06/07 00:59:28;;;;;;;4.80;4.40;;;;;;;;;;5049681;28;20842;-67
2023/06/07 01:01:56;;;;;;;7.45;5.20;;;;;;;;;;5044300;28;20792;-67
2023/06/07 01:04:24;;;;;;;5.70;4.65;;;;;;;;;;5043171;28;20931;-67
2023/06/07 01:06:52;;;;;;;5.03;4.63;;;;;;;;;;5039586;28;20442;-67
2023/06/07 01:09:20;;;;;;;5.45;4.95;;;;;;;;;;5043947;28;20423;-67
2023/06/07 01:11:48;;;;;;;6.25;5.65;;;;;;;;;;5048775;28;20422;-67
2023/06/07 01:14:16;;;;;;;5.53;5.03;;;;;;;;;;5045445;28;20520;-67
2023/06/07 01:16:44;;;;;;;8.35;5.03;;;;;;;;;;5045681;28;20413;-67
2023/06/07 01:19:16;;;;;;;7.40;5.10;;;;;;;;;;5039846;28;20846;-67
2023/06/07 01:21:43;;;;;;;7.22;4.90;;;;;;;;;;5045601;28;20429;-67
2023/06/07 01:24:12;;;;;;;5.40;4.90;;;;;;;;;;5049310;28;20425;-67
2023/06/07 01:26:40;;;;;;;5.20;4.70;;;;;;;;;;5047617;28;20463;-67
2023/06/07 01:29:07;;;;;;;5.88;5.38;;;;;;;;;;5042681;28;20418;-66
2023/06/07 01:31:35;;;;;;;5.00;4.60;;;;;;;;;;5042695;28;20982;-66
2023/06/07 01:34:03;;;;;;;5.40;4.90;;;;;;;;;;5042531;28;20429;-67
2023/06/07 01:36:31;;;;;;;4.95;4.45;;;;;;;;;;5050119;28;20421;-67
2023/06/07 01:39:00;;;;;;;6.47;5.00;;;;;;;;;;5045719;28;20807;-67
2023/06/07 01:41:29;;;;;;;6.00;5.40;;;;;;;;;;5047663;28;20433;-67
2023/06/07 01:43:57;;;;;;;5.78;5.18;;;;;;;;;;5044631;28;20436;-67
2023/06/07 01:46:25;;;;;;;6.97;5.00;;;;;;;;;;5050365;28;20428;-67
2023/06/07 01:48:52;;;;;;;5.65;5.05;;;;;;;;;;5049092;28;20731;-67
2023/06/07 01:51:19;;;;;;;5.50;5.00;;;;;;;;;;5037526;28;20846;-67
2023/06/07 01:53:47;;;;;;;6.03;5.40;;;;;;;;;;5039199;28;20423;-67
2023/06/07 01:56:17;;;;;;;5.63;5.13;;;;;;;;;;5050214;28;20922;-67
2023/06/07 01:58:50;;;;;;;5.60;5.07;;;;;;;;;;5036462;28;20955;-67
2023/06/07 02:01:20;;;;;;;5.90;5.30;;;;;;;;;;5042469;28;20433;-67
2023/06/07 02:03:51;;;;;;;6.30;5.60;;;;;;;;;;5039479;28;20454;-67
2023/06/07 02:06:20;;;;;;;6.70;5.57;;;;;;;;;;5048644;28;20429;-67
2023/06/07 02:08:49;;;;;;;5.63;5.00;;;;;;;;;;5036554;28;20413;-67
2023/06/07 02:11:18;;;;;;;6.30;5.70;;;;;;;;;;5045285;28;20431;-66
2023/06/07 02:13:47;;;;;;;5.80;5.30;;;;;;;;;;5042219;28;20420;-67
2023/06/07 02:16:14;;;;;;;6.22;5.30;;;;;;;;;;5037885;28;20441;-67
2023/06/07 02:18:41;;;;;;;6.30;5.70;;;;;;;;;;5048817;28;20447;-68
2023/06/07 02:21:08;;;;;;;6.15;5.55;;;;;;;;;;5043907;28;20465;-67
2023/06/07 02:23:35;;;;;;;6.20;5.65;;;;;;;;;;5044167;28;20620;-67
2023/06/07 02:26:02;;;;;;;6.13;5.53;;;;;;;;;;5036929;28;20423;-66
2023/06/07 02:28:30;;;;;;;5.60;5.10;;;;;;;;;;5043259;28;20426;-66
2023/06/07 02:30:59;;;;;;;6.47;5.88;;;;;;;;;;5040673;28;20437;-66
2023/06/07 02:33:26;;;;;;;6.00;5.50;;;;;;;;;;5035460;28;20413;-66
2023/06/07 02:35:53;;;;;;;5.60;5.10;;;;;;;;;;5043785;28;20918;-67
2023/06/07 02:38:20;;;;;;;6.28;5.70;;;;;;;;;;5039144;28;20788;-67
2023/06/07 02:40:47;;;;;;;5.97;5.40;;;;;;;;;;5047885;28;20838;-67
2023/06/07 02:43:15;;;;;;;6.63;5.40;;;;;;;;;;5045195;28;20436;-69
2023/06/07 02:45:42;;;;;;;6.63;5.93;;;;;;;;;;5044547;28;20435;-67
2023/06/07 02:48:12;;;;;;;5.70;5.30;;;;;;;;;;5044215;28;20421;-67
2023/06/07 02:50:39;;;;;;;6.47;5.65;;;;;;;;;;5039163;28;20429;-66
2023/06/07 02:53:07;;;;;;;6.27;5.67;;;;;;;;;;5040365;28;20438;-66
2023/06/07 02:55:34;;;;;;;5.78;5.28;;;;;;;;;;5043594;28;20417;-67
2023/06/07 02:58:01;;;;;;;6.78;5.90;;;;;;;;;;5040197;28;20931;-67
2023/06/07 03:00:28;;;;;;;5.83;5.33;;;;;;;;;;5035365;28;20440;-67
2023/06/07 03:02:55;;;;;;;6.33;5.73;;;;;;;;;;5039209;28;20421;-67
2023/06/07 03:05:26;;;;;;;14.02;6.18;;;;;;;;;;5046478;28;20428;-67
2023/06/07 03:07:56;;;;;;;6.07;5.47;;;;;;;;;;5037995;28;20522;-67
2023/06/07 03:10:23;;;;;;;6.22;5.72;;;;;;;;;;5041551;28;20456;-67
2023/06/07 03:12:50;;;;;;;6.60;6.00;;;;;;;;;;5034133;28;20469;-66
2023/06/07 03:15:18;;;;;;;7.13;6.43;;;;;;;;;;5041275;28;20530;-67
2023/06/07 03:17:45;;;;;;;7.03;6.38;;;;;;;;;;5038957;28;20428;-68
2023/06/07 03:20:12;;;;;;;6.88;6.28;;;;;;;;;;5044799;28;20507;-69
2023/06/07 03:22:41;;;;;;;7.07;6.38;;;;;;;;;;5034828;28;20493;-66
2023/06/07 03:25:08;;;;;;;6.70;6.10;;;;;;;;;;5045990;28;20436;-67
2023/06/07 03:27:36;;;;;;;6.93;6.32;;;;;;;;;;5047784;28;20487;-66
2023/06/07 03:30:03;;;;;;;7.15;6.50;;;;;;;;;;5035319;28;20489;-67
2023/06/07 03:32:30;;;;;;;6.95;6.25;;;;;;;;;;5032411;28;20435;-67
2023/06/07 03:34:57;;;;;;;7.85;6.80;;;;;;;;;;5042784;28;20792;-67
2023/06/07 03:37:24;;;;;;;7.50;6.70;;;;;;;;;;5047498;28;20421;-67
2023/06/07 03:39:53;;;;;;;6.95;5.88;;;;;;;;;;5046421;28;20414;-67
2023/06/07 03:42:20;;;;;;;7.10;6.30;;;;;;;;;;5041243;28;20441;-67
2023/06/07 03:44:47;;;;;;;8.27;6.60;;;;;;;;;;5048160;28;20635;-67
2023/06/07 03:47:14;;;;;;;7.78;6.10;;;;;;;;;;5043870;28;20776;-68
2023/06/07 03:49:42;;;;;;;7.70;6.93;;;;;;;;;;5044942;28;20459;-68
2023/06/07 03:52:09;;;;;;;7.65;6.95;;;;;;;;;;5034043;28;20477;-67
2023/06/07 03:54:36;;;;;;;7.60;6.90;;;;;;;;;;5033407;28;20443;-67
2023/06/07 03:57:05;;;;;;;6.60;6.00;;;;;;;;;;5041698;28;20420;-67
2023/06/07 03:59:32;;;;;;;7.30;6.60;;;;;;;;;;5041502;28;20426;-67
2023/06/07 04:02:00;;;;;;;7.60;7.00;;;;;;;;;;5042037;28;20437;-67
2023/06/07 04:04:27;;;;;;;7.63;6.90;;;;;;;;;;5037530;28;20433;-67
2023/06/07 04:06:55;;;;;;;8.40;6.82;;;;;;;;;;5046539;28;20811;-68
2023/06/07 04:09:22;;;;;;;8.45;6.50;;;;;;;;;;5039252;28;20457;-67
2023/06/07 04:11:49;;;;;;;7.30;6.60;;;;;;;;;;5045262;28;20433;-67
2023/06/07 04:14:17;;;;;;;7.03;6.43;;;;;;;;;;5038916;28;20868;-67
2023/06/07 04:16:44;;;;;;;6.57;5.88;;;;;;;;;;5070288;22;21232;-67
2023/06/07 04:19:11;;;;;;;8.75;6.90;;;;;;;;;;5066784;28;20431;-69
2023/06/07 04:21:38;;;;;;;7.45;6.10;;;;;;;;;;5057045;28;20923;-67
2023/06/07 04:24:06;;;;;;;7.87;7.00;;;;;;;;;;5068998;28;20422;-70
2023/06/07 04:26:33;;;;;;;8.32;6.90;;;;;;;;;;5069273;28;20431;-70
2023/06/07 04:29:00;;;;;;;9.13;7.30;;;;;;;;;;5061313;28;20432;-67
2023/06/07 04:31:33;;;;;;;9.00;6.50;;;;;;;;;;5064351;28;20786;-68
2023/06/07 04:34:01;;;;;;;7.68;6.93;;;;;;;;;;5067843;28;20774;-70
2023/06/07 04:36:29;;;;;;;7.45;6.75;;;;;;;;;;5062784;28;20450;-71
2023/06/07 04:38:56;;;;;;;9.13;6.77;;;;;;;;;;5060492;28;20517;-69
2023/06/07 04:41:30;;;;;;;7.82;7.03;;;;;;;;;;5057946;28;20447;-68
2023/06/07 04:43:57;;;;;;;8.20;6.80;;;;;;;;;;5059614;28;20809;-68
2023/06/07 04:46:24;;;;;;;8.55;6.60;;;;;;;;;;5065076;28;20913;-67
2023/06/07 04:48:53;;;;;;;8.90;6.50;;;;;;;;;;5066711;28;20441;-68
2023/06/07 04:51:22;;;;;;;7.30;6.60;;;;;;;;;;5056726;28;20431;-66
2023/06/07 04:53:49;;;;;;;7.13;6.43;;;;;;;;;;5056125;28;20428;-70
2023/06/07 04:56:17;;;;;;;7.03;6.32;;;;;;;;;;5061240;28;20446;-68
2023/06/07 04:58:45;;;;;;;10.23;6.88;;;;;;;;;;5068765;28;20450;-71
2023/06/07 05:01:12;;;;;;;7.20;6.60;;;;;;;;;;5068254;28;20438;-67
2023/06/07 05:03:39;;;;;;;7.50;6.70;;;;;;;;;;5076614;28;20438;-68
2023/06/07 05:06:08;;;;;;;6.63;6.03;;;;;;;;;;5080160;28;20536;-67
2023/06/07 05:08:35;;;;;;;6.93;6.22;;;;;;;;;;5084068;28;20436;-66
2023/06/07 05:11:02;;;;;;;7.70;7.00;;;;;;;;;;5068479;28;20421;-71
2023/06/07 05:13:29;;;;;;;7.50;6.80;;;;;;;;;;5066270;28;20436;-70
2023/06/07 05:15:56;;;;;;;7.25;6.45;;;;;;;;;;5073125;28;20807;-71
2023/06/07 05:18:24;;;;;;;8.00;7.20;;;;;;;;;;5066206;28;20421;-72
2023/06/07 05:20:51;;;;;;;8.00;7.18;;;;;;;;;;5068586;28;20517;-71
2023/06/07 05:23:20;;;;;;;7.30;6.60;;;;;;;;;;5075327;28;20432;-71
2023/06/07 05:25:47;;;;;;;8.55;6.55;;;;;;;;;;5071710;28;20481;-72
2023/06/07 05:28:14;;;;;;;7.10;6.40;;;;;;;;;;5072626;28;20455;-71
2023/06/07 05:30:41;;;;;;;7.45;6.65;;;;;;;;;;5072212;28;20419;-71
2023/06/07 05:33:09;;;;;;;7.93;5.90;;;;;;;;;;5072331;28;20420;-71
2023/06/07 05:35:37;;;;;;;8.65;6.78;;;;;;;;;;5074878;28;20431;-70
2023/06/07 05:38:04;;;;;;;9.15;6.50;;;;;;;;;;5077241;28;20435;-70
2023/06/07 05:40:32;;;;;;;6.90;6.30;;;;;;;;;;5062200;28;20437;-71
2023/06/07 05:42:59;;;;;;;7.20;6.50;;;;;;;;;;5064591;28;21061;-71
2023/06/07 05:45:26;;;;;;;7.18;6.47;;;;;;;;;;5063421;28;20948;-71
2023/06/07 05:47:53;;;;;;;8.77;6.90;;;;;;;;;;5071352;28;20431;-71
2023/06/07 05:50:20;;;;;;;9.35;6.45;;;;;;;;;;5072662;28;20437;-71
2023/06/07 05:52:47;;;;;;;6.50;5.90;;;;;;;;;;5062594;28;20420;-70
2023/06/07 05:55:16;;;;;;;7.30;6.38;;;;;;;;;;5059723;28;20421;-72
2023/06/07 05:57:44;;;;;;;6.50;5.90;;;;;;;;;;5070628;28;20566;-70
2023/06/07 06:00:12;;;;;;;7.95;6.13;;;;;;;;;;5070391;28;20874;-72
2023/06/07 06:02:41;;;;;;;8.82;6.45;;;;;;;;;;5080355;28;20820;-72
2023/06/07 06:05:09;;;;;;;7.47;5.72;;;;;;;;;;5063614;28;20437;-71
2023/06/07 06:07:36;;;;;;;7.88;6.82;;;;;;;;;;5058340;28;20411;-71
2023/06/07 06:10:04;;;;;;;6.47;5.80;;;;;;;;;;5070670;28;20793;-72
2023/06/07 06:12:31;;;;;;;7.15;5.70;;;;;;;;;;5071975;28;20426;-71
2023/06/07 06:14:59;;;;;;;14.35;7.70;;;;;;;;;;5071395;28;20928;-69
2023/06/07 06:17:26;;;;;;;13.63;6.50;;;;;;;;;;5056504;28;20803;-70
2023/06/07 06:19:53;;;;;;;34.67;9.90;;;;;;;;;;5074154;28;20945;-70
2023/06/07 06:22:21;;;;;;;208.50;30.55;;;;;;;;;;5062594;28;20431;-72
2023/06/07 06:24:48;;;;;;;58.00;13.48;;;;;;;;;;5071721;28;20414;-70
2023/06/07 06:27:15;;;;;;;24.55;8.38;;;;;;;;;;5086787;28;20419;-72
2023/06/07 06:29:42;;;;;;;9.57;6.90;;;;;;;;;;5070768;28;20459;-72
2023/06/07 06:32:11;;;;;;;8.80;6.50;;;;;;;;;;5072311;28;20423;-71
2023/06/07 06:34:38;;;;;;;8.48;5.70;;;;;;;;;;5072658;28;20584;-71
2023/06/07 06:37:05;;;;;;;7.50;6.20;;;;;;;;;;5069149;28;20425;-71
2023/06/07 06:39:32;;;;;;;10.50;6.50;;;;;;;;;;5057720;28;20522;-71
2023/06/07 06:42:00;;;;;;;9.23;6.57;;;;;;;;;;5071750;28;20450;-71
2023/06/07 06:44:27;;;;;;;7.70;6.53;;;;;;;;;;5070926;28;20428;-71
2023/06/07 06:46:54;;;;;;;8.07;6.65;;;;;;;;;;5070772;28;20416;-71
2023/06/07 06:49:22;;;;;;;12.43;6.53;;;;;;;;;;5059797;28;20427;-70
2023/06/07 06:51:51;;;;;;;14.80;6.90;;;;;;;;;;5070600;28;20419;-71
2023/06/07 06:54:18;;;;;;;10.68;6.57;;;;;;;;;;5070391;28;20977;-71
2023/06/07 06:56:45;;;;;;;8.00;6.40;;;;;;;;;;5071928;28;20419;-71
2023/06/07 06:59:12;;;;;;;9.47;6.93;;;;;;;;;;5075368;28;20407;-71
2023/06/07 07:01:46;;;;;;;7.65;6.18;;;;;;;;;;5071140;28;20411;-71
2023/06/07 07:04:14;;;;;;;9.07;6.43;;;;;;;;;;5064251;28;20429;-70
2023/06/07 07:06:42;;;;;;;6.90;5.75;;;;;;;;;;5066693;28;20413;-72
2023/06/07 07:09:10;;;;;;;9.57;6.55;;;;;;;;;;5070079;28;20435;-70
2023/06/07 07:11:37;;;;;;;9.60;7.50;;;;;;;;;;5070675;28;20420;-70
2023/06/07 07:14:05;;;;;;;8.30;6.80;;;;;;;;;;5070211;28;20900;-70
2023/06/07 07:16:32;;;;;;;7.85;6.90;;;;;;;;;;5076796;28;20424;-72
2023/06/07 07:18:59;;;;;;;7.40;6.60;;;;;;;;;;5066349;28;20444;-71
2023/06/07 07:21:27;;;;;;;10.70;7.80;;;;;;;;;;5067592;28;20781;-71
2023/06/07 07:23:56;;;;;;;11.35;7.40;;;;;;;;;;5069727;28;20910;-72
2023/06/07 07:26:23;;;;;;;7.72;6.93;;;;;;;;;;5056258;28;20476;-70
2023/06/07 07:28:52;;;;;;;11.20;7.45;;;;;;;;;;5069632;28;20437;-71
2023/06/07 07:31:19;;;;;;;12.68;6.60;;;;;;;;;;5078499;28;20463;-71
2023/06/07 07:33:46;;;;;;;7.07;6.35;;;;;;;;;;5061133;28;20451;-70
2023/06/07 07:36:14;;;;;;;9.75;6.88;;;;;;;;;;5068914;28;20408;-71
2023/06/07 07:38:45;;;;;;;8.90;6.70;;;;;;;;;;5068703;28;20490;-71
2023/06/07 07:41:14;;;;;;;8.25;6.20;;;;;;;;;;5069707;28;20426;-71
2023/06/07 07:43:41;;;;;;;6.80;6.20;;;;;;;;;;5070654;28;20465;-71
2023/06/07 07:46:08;;;;;;;6.60;5.90;;;;;;;;;;5067912;28;20434;-71
2023/06/07 07:48:35;;;;;;;8.25;6.40;;;;;;;;;;5068882;28;21679;-70
2023/06/07 07:51:03;;;;;;;9.63;6.30;;;;;;;;;;5055560;28;20852;-70
2023/06/07 07:53:31;;;;;;;7.97;6.82;;;;;;;;;;5065161;28;20414;-71
2023/06/07 07:55:58;;;;;;;10.60;7.82;;;;;;;;;;5069932;28;20755;-71
2023/06/07 07:58:26;;;;;;;12.52;7.45;;;;;;;;;;5069709;28;21082;-70
2023/06/07 08:00:53;;;;;;;10.32;8.07;;;;;;;;;;5066696;28;20919;-71
2023/06/07 08:03:21;;;;;;;7.95;7.15;;;;;;;;;;5065554;28;20454;-71
2023/06/07 08:05:48;;;;;;;11.45;7.45;;;;;;;;;;5069779;28;20914;-71
2023/06/07 08:08:16;;;;;;;11.23;8.27;;;;;;;;;;5065853;28;20898;-72
2023/06/07 08:10:43;;;;;;;13.30;8.20;;;;;;;;;;5069109;28;20441;-70
2023/06/07 08:13:10;;;;;;;15.80;9.90;;;;;;;;;;5073382;28;20454;-71
2023/06/07 08:15:39;;;;;;;13.05;8.30;;;;;;;;;;5057139;28;20420;-70
2023/06/07 08:18:06;;;;;;;16.05;9.20;;;;;;;;;;5061310;28;20436;-70
2023/06/07 08:20:33;;;;;;;10.98;8.20;;;;;;;;;;5064200;28;20443;-70
2023/06/07 08:23:00;;;;;;;9.30;8.10;;;;;;;;;;5054076;28;20809;-71
2023/06/07 08:25:27;;;;;;;9.50;7.57;;;;;;;;;;5071008;28;20966;-71
2023/06/07 08:27:54;;;;;;;10.70;8.85;;;;;;;;;;5066362;28;20429;-70
2023/06/07 08:30:21;;;;;;;12.10;8.90;;;;;;;;;;5056721;28;20427;-71
2023/06/07 08:32:50;;;;;;;11.25;7.90;;;;;;;;;;5060675;28;20404;-70
2023/06/07 08:35:17;;;;;;;8.90;7.00;;;;;;;;;;5093143;28;20563;-70
2023/06/07 08:37:44;;;;;;;8.02;7.22;;;;;;;;;;5094968;28;20419;-70
2023/06/07 08:40:12;;;;;;;8.50;7.05;;;;;;;;;;5081335;28;20443;-71
2023/06/07 08:42:39;;;;;;;7.80;7.00;;;;;;;;;;5070451;28;20890;-71
2023/06/07 08:45:07;;;;;;;10.27;7.40;;;;;;;;;;5072211;28;20423;-71
2023/06/07 08:47:34;;;;;;;7.47;6.47;;;;;;;;;;5072960;28;20414;-71
2023/06/07 08:50:03;;;;;;;8.27;7.00;;;;;;;;;;5074038;28;20438;-71
2023/06/07 08:52:32;;;;;;;7.15;6.50;;;;;;;;;;5073009;28;20517;-70
2023/06/07 08:55:00;;;;;;;5.90;5.40;;;;;;;;;;5072705;28;20793;-71
2023/06/07 08:57:27;;;;;;;7.85;6.95;;;;;;;;;;5073068;28;20407;-71
2023/06/07 08:59:55;;;;;;;6.90;6.10;;;;;;;;;;5089185;28;20396;-70
2023/06/07 09:02:24;;;;;;;7.40;6.23;;;;;;;;;;5075517;28;20427;-73
2023/06/07 09:04:51;;;;;;;17.48;10.15;;;;;;;;;;5076755;28;20440;-72
2023/06/07 09:07:19;;;;;;;11.73;8.45;;;;;;;;;;5071941;28;20509;-72
2023/06/07 09:09:47;;;;;;;12.73;8.32;;;;;;;;;;5070550;28;20435;-73
2023/06/07 09:12:14;;;;;;;15.85;8.60;;;;;;;;;;5072308;28;20415;-74
2023/06/07 09:14:41;;;;;;;13.35;8.10;;;;;;;;;;5072574;28;20422;-73
2023/06/07 09:17:08;;;;;;;7.68;6.88;;;;;;;;;;5067769;28;20436;-73
2023/06/07 09:19:36;;;;;;;21.35;12.55;;;;;;;;;;5070655;28;20440;-74
2023/06/07 09:22:03;;;;;;;18.23;9.85;;;;;;;;;;5068183;28;20443;-73
2023/06/07 09:24:33;;;;;;;10.07;6.97;;;;;;;;;;5072428;28;20439;-72
2023/06/07 09:27:01;;;;;;;8.20;5.90;;;;;;;;;;5097111;28;20418;-73
2023/06/07 09:29:29;;;;;;;6.45;5.25;;;;;;;;;;5085681;28;20411;-71
2023/06/07 09:31:56;;;;;;;5.93;5.18;;;;;;;;;;5082556;28;20412;-73
2023/06/07 09:34:24;;;;;;;10.70;5.80;;;;;;;;;;5077003;28;20509;-73
2023/06/07 09:36:56;;;;;;;5.97;5.28;;;;;;;;;;5074178;28;20416;-72
2023/06/07 09:39:23;;;;;;;7.47;4.90;;;;;;;;;;5072968;28;20419;-75
2023/06/07 09:41:54;;;;;;;10.95;6.80;;;;;;;;;;5072861;28;20778;-73
2023/06/07 09:44:25;;;;;;;8.35;6.35;;;;;;;;;;5073064;28;20415;-73
2023/06/07 09:46:52;;;;;;;6.00;5.40;;;;;;;;;;5071430;28;20428;-73
2023/06/07 09:49:37;;;;;;;7.72;6.97;;;;;;;;;;5068938;28;20889;-74
2023/06/07 09:52:05;;;;;;;6.38;5.45;;;;;;;;;;5076679;28;20562;-74
2023/06/07 09:54:38;;;;;;;6.30;5.70;;;;;;;;;;5071767;28;20415;-72
2023/06/07 09:57:08;;;;;;;7.00;6.33;;;;;;;;;;5071968;28;20412;-73
2023/06/07 09:59:37;;;;;;;6.35;5.75;;;;;;;;;;5067793;28;20432;-74
2023/06/07 10:02:04;;;;;;;7.40;6.10;;;;;;;;;;5069418;28;20424;-74
2023/06/07 10:04:32;;;;;;;9.63;7.53;;;;;;;;;;5071159;28;20894;-71
2023/06/07 10:07:01;;;;;;;7.03;6.32;;;;;;;;;;5070087;28;20451;-71
2023/06/07 10:09:29;;;;;;;8.90;5.80;;;;;;;;;;5068156;28;20434;-73
2023/06/07 10:11:58;;;;;;;8.20;6.22;;;;;;;;;;5073144;28;21073;-74
2023/06/07 10:14:29;;;;;;;6.00;5.40;;;;;;;;;;5065536;28;20503;-74
2023/06/07 10:17:01;;;;;;;8.15;6.20;;;;;;;;;;5075078;22;20438;-70
2023/06/07 10:19:31;;;;;;;6.35;5.75;;;;;;;;;;5065225;28;20461;-70
2023/06/07 10:22:00;;;;;;;7.90;6.53;;;;;;;;;;5056042;28;20437;-71
2023/06/07 10:24:30;;;;;;;7.53;6.47;;;;;;;;;;5063056;28;20415;-71
2023/06/07 10:27:01;;;;;;;6.30;5.70;;;;;;;;;;5058480;28;20423;-71
2023/06/07 10:29:33;;;;;;;6.93;6.23;;;;;;;;;;5066418;28;20424;-71
2023/06/07 10:32:04;;;;;;;7.00;6.30;;;;;;;;;;5048593;28;20429;-71
2023/06/07 10:34:31;;;;;;;9.10;6.65;;;;;;;;;;5052480;28;20817;-70
2023/06/07 10:36:59;;;;;;;7.97;5.90;;;;;;;;;;5049394;28;20414;-70
2023/06/07 10:39:26;;;;;;;6.70;6.00;;;;;;;;;;5049124;28;20417;-69
2023/06/07 10:41:53;;;;;;;6.72;6.07;;;;;;;;;;5049186;28;20417;-72
2023/06/07 10:44:20;;;;;;;7.50;6.78;;;;;;;;;;5062421;28;20420;-71
2023/06/07 10:46:49;;;;;;;7.95;6.72;;;;;;;;;;5049199;28;20440;-72
2023/06/07 10:49:31;;;;;;;8.03;6.40;;;;;;;;;;5039267;28;20456;-69
2023/06/07 10:52:05;;;;;;;7.63;6.40;;;;;;;;;;5048783;28;20772;-70
2023/06/07 10:54:32;;;;;;;8.07;7.28;;;;;;;;;;5057897;28;20439;-69
2023/06/07 10:57:00;;;;;;;8.60;6.60;;;;;;;;;;5048486;28;20441;-70
2023/06/07 10:59:27;;;;;;;7.25;6.63;;;;;;;;;;5046903;28;20460;-70
2023/06/07 11:02:19;;;;;;;7.07;6.43;;;;;;;;;;5045230;28;21284;-70
2023/06/07 11:04:54;;;;;;;6.82;6.22;;;;;;;;;;5043651;28;20434;-70
2023/06/07 11:07:22;;;;;;;8.20;7.60;;;;;;;;;;5053141;28;20423;-72
2023/06/07 11:09:49;;;;;;;8.57;7.67;;;;;;;;;;5048069;28;20427;-70
2023/06/07 11:12:35;;;;;;;8.93;8.13;;;;;;;;;;5047328;28;20884;-70
2023/06/07 11:15:22;;;;;;;7.67;7.07;;;;;;;;;;5050991;28;20417;-70
2023/06/07 11:17:54;;;;;;;9.13;8.23;;;;;;;;;;5061250;28;20419;-70
2023/06/07 11:20:40;;;;;;;8.10;7.40;;;;;;;;;;5041830;28;20527;-71
2023/06/07 11:23:21;;;;;;;8.80;8.10;;;;;;;;;;5046031;28;20441;-71
2023/06/07 11:25:48;;;;;;;9.20;8.20;;;;;;;;;;5049343;28;20422;-70
2023/06/07 11:28:15;;;;;;;9.75;8.82;;;;;;;;;;5048331;28;20424;-70
2023/06/07 11:30:43;;;;;;;9.70;8.82;;;;;;;;;;5048210;28;20676;-72
2023/06/07 11:33:15;;;;;;;10.70;9.70;;;;;;;;;;5048672;28;20504;-70
2023/06/07 11:35:42;;;;;;;9.70;8.80;;;;;;;;;;5041305;28;20435;-72
2023/06/07 11:38:09;;;;;;;11.65;10.55;;;;;;;;;;5047465;28;20498;-70
2023/06/07 11:40:36;;;;;;;10.98;10.07;;;;;;;;;;5051356;28;20424;-71
2023/06/07 11:43:03;;;;;;;12.25;11.25;;;;;;;;;;5059453;28;20425;-69
2023/06/07 11:45:33;;;;;;;11.60;10.50;;;;;;;;;;5043687;28;20423;-70
2023/06/07 11:48:02;;;;;;;11.60;10.60;;;;;;;;;;5052476;28;20423;-70
2023/06/07 11:50:30;;;;;;;11.00;10.10;;;;;;;;;;5044751;28;20464;-70
2023/06/07 11:52:57;;;;;;;11.32;10.40;;;;;;;;;;5057535;28;20411;-70
2023/06/07 11:55:25;;;;;;;10.80;9.90;;;;;;;;;;5064508;28;20429;-70
2023/06/07 11:57:53;;;;;;;11.00;10.10;;;;;;;;;;5047766;28;20416;-70
2023/06/07 12:00:21;;;;;;;12.48;11.48;;;;;;;;;;5047607;28;20471;-71
2023/06/07 12:02:48;;;;;;;11.40;10.50;;;;;;;;;;5046690;28;20803;-71
2023/06/07 12:05:16;;;;;;;12.27;11.18;;;;;;;;;;5043631;28;20686;-70
2023/06/07 12:07:45;;;;;;;11.13;10.32;;;;;;;;;;5042582;28;20548;-70
2023/06/07 12:10:12;;;;;;;12.10;11.10;;;;;;;;;;5044381;28;20428;-70
2023/06/07 12:12:40;;;;;;;11.98;10.98;;;;;;;;;;5059455;28;20447;-70
2023/06/07 12:15:07;;;;;;;10.60;9.70;;;;;;;;;;5049078;28;20709;-70
2023/06/07 12:17:35;;;;;;;10.65;9.85;;;;;;;;;;5047475;28;20448;-69
2023/06/07 12:20:09;;;;;;;11.45;10.65;;;;;;;;;;5048166;28;20532;-70
2023/06/07 12:22:36;;;;;;;13.00;11.90;;;;;;;;;;5052727;28;20440;-70
2023/06/07 12:25:12;;;;;;;12.50;11.50;;;;;;;;;;5052085;28;20421;-71
2023/06/07 12:27:39;;;;;;;12.57;11.60;;;;;;;;;;5052188;28;20431;-70
2023/06/07 12:30:07;;;;;;;15.10;13.55;;;;;;;;;;5051321;28;20417;-70
2023/06/07 12:32:35;;;;;;;20.60;18.50;;;;;;;;;;5042995;28;20797;-70
2023/06/07 12:35:02;;;;;;;23.70;21.50;;;;;;;;;;5050738;28;20947;-70
2023/06/07 12:37:30;;;;;;;25.80;23.60;;;;;;;;;;5047872;28;20483;-70
2023/06/07 12:39:57;;;;;;;28.58;26.17;;;;;;;;;;5050549;28;20412;-70
2023/06/07 12:42:26;;;;;;;30.80;28.00;;;;;;;;;;5065254;28;20419;-71
2023/06/07 12:44:54;;;;;;;33.25;29.98;;;;;;;;;;5051757;28;20732;-70
2023/06/07 12:47:21;;;;;;;32.58;29.67;;;;;;;;;;5051445;28;20867;-71
2023/06/07 12:49:48;;;;;;;33.97;30.88;;;;;;;;;;5050079;28;20788;-71
2023/06/07 12:52:15;;;;;;;40.95;37.05;;;;;;;;;;5051215;28;20911;-70
2023/06/07 12:54:43;;;;;;;42.43;37.93;;;;;;;;;;5051535;28;20421;-70
2023/06/07 12:57:10;;;;;;;43.22;38.92;;;;;;;;;;5064728;28;20420;-71
2023/06/07 12:59:38;;;;;;;45.15;40.30;;;;;;;;;;5061124;28;20786;-71
2023/06/07 13:02:06;;;;;;;54.65;46.03;;;;;;;;;;5050913;28;20658;-71
2023/06/07 13:04:33;;;;;;;52.13;46.03;;;;;;;;;;5050457;28;20457;-70
2023/06/07 13:07:01;;;;;;;61.63;47.83;;;;;;;;;;5053551;28;20425;-71
2023/06/07 13:09:28;;;;;;;60.55;47.72;;;;;;;;;;5044573;28;20470;-72
2023/06/07 13:11:56;;;;;;;50.67;43.33;;;;;;;;;;5054180;28;20420;-70
2023/06/07 13:14:23;;;;;;;50.77;43.67;;;;;;;;;;5061697;28;20431;-72
2023/06/07 13:16:51;;;;;;;56.53;45.90;;;;;;;;;;5051538;28;20915;-72
2023/06/07 13:19:18;;;;;;;47.63;42.47;;;;;;;;;;5045136;28;20433;-71
2023/06/07 13:21:45;;;;;;;57.93;46.23;;;;;;;;;;5061117;28;20935;-70
2023/06/07 13:24:12;;;;;;;60.78;48.33;;;;;;;;;;5065016;28;20499;-72
2023/06/07 13:26:40;;;;;;;60.45;46.95;;;;;;;;;;5051673;28;20429;-71
2023/06/07 13:29:07;;;;;;;54.83;44.80;;;;;;;;;;5041132;28;20937;-71
2023/06/07 13:31:34;;;;;;;54.13;47.10;;;;;;;;;;5057774;28;20422;-71
2023/06/07 13:34:02;;;;;;;49.20;43.80;;;;;;;;;;5049010;28;20727;-71
2023/06/07 13:36:30;;;;;;;52.08;46.03;;;;;;;;;;5056009;28;20411;-71
2023/06/07 13:38:57;;;;;;;50.67;45.38;;;;;;;;;;5055820;28;20425;-70
2023/06/07 13:41:25;;;;;;;41.47;37.57;;;;;;;;;;5050913;28;20426;-71
2023/06/07 13:43:52;;;;;;;39.05;35.55;;;;;;;;;;5043286;28;20506;-71
2023/06/07 13:46:19;;;;;;;39.70;36.20;;;;;;;;;;5050419;28;20552;-71
2023/06/07 13:48:47;;;;;;;39.55;35.88;;;;;;;;;;5044972;28;20991;-71
2023/06/07 13:51:15;;;;;;;37.47;34.28;;;;;;;;;;5050123;28;20417;-71
2023/06/07 13:53:43;;;;;;;38.28;34.88;;;;;;;;;;5050221;28;20448;-71
2023/06/07 13:56:10;;;;;;;36.63;33.53;;;;;;;;;;5050151;28;20425;-71
2023/06/07 13:58:37;;;;;;;37.40;34.20;;;;;;;;;;5048246;28;20431;-71
2023/06/07 14:01:05;;;;;;;32.10;29.50;;;;;;;;;;5048481;28;20478;-71
2023/06/07 14:03:32;;;;;;;31.60;28.95;;;;;;;;;;5053966;28;20421;-71
2023/06/07 14:05:59;;;;;;;27.45;25.35;;;;;;;;;;5050036;28;20422;-71
2023/06/07 14:08:28;;;;;;;28.73;26.42;;;;;;;;;;5049997;28;20433;-71
2023/06/07 14:10:55;;;;;;;28.70;26.40;;;;;;;;;;5049537;28;20914;-71
2023/06/07 14:13:22;;;;;;;29.40;27.00;;;;;;;;;;5051373;28;20898;-71
2023/06/07 14:15:50;;;;;;;29.70;27.40;;;;;;;;;;5049954;28;20421;-71
2023/06/07 14:18:17;;;;;;;27.60;25.50;;;;;;;;;;5048804;28;20429;-72
2023/06/07 14:20:44;;;;;;;24.33;22.52;;;;;;;;;;5049477;28;20449;-70
2023/06/07 14:23:11;;;;;;;23.60;22.00;;;;;;;;;;5050016;28;20534;-70
2023/06/07 14:25:39;;;;;;;22.65;21.05;;;;;;;;;;5048561;28;20421;-71
2023/06/07 14:28:06;;;;;;;21.90;20.40;;;;;;;;;;5041719;28;20444;-73
2023/06/07 14:30:34;;;;;;;16.65;15.55;;;;;;;;;;5049044;28;20826;-73
2023/06/07 14:33:01;;;;;;;17.70;16.60;;;;;;;;;;5047094;28;20448;-71
2023/06/07 14:35:28;;;;;;;18.13;16.90;;;;;;;;;;5049350;28;20479;-71
2023/06/07 14:37:55;;;;;;;17.55;16.35;;;;;;;;;;5049196;28;20512;-71
2023/06/07 14:40:22;;;;;;;17.20;16.10;;;;;;;;;;5048743;28;20413;-71